sensor_id;sensor_type;location;lat;lon;timestamp;pressure;altitude;pressure_sealevel;temperature;humidity
57086;BME280;42964;42.910;23.792;2022-11-23T00:04:02;96296.63;;;5.92;89.15
57086;BME280;42964;42.910;23.792;2022-11-23T00:09:02;96308.63;;;5.95;89.10
57086;BME280;42964;42.910;23.792;2022-11-23T00:14:01;96287.16;;;6.01;88.04
57086;BME280;42964;42.910;23.792;2022-11-23T00:19:01;96284.50;;;6.07;88.40
57086;BME280;42964;42.910;23.792;2022-11-23T00:24:00;96283.59;;;6.14;88.38
57086;BME280;42964;42.910;23.792;2022-11-23T00:28:59;96280.16;;;6.18;87.92
57086;BME280;42964;42.910;23.792;2022-11-23T00:33:58;96299.84;;;6.25;87.01
57086;BME280;42964;42.910;23.792;2022-11-23T00:38:57;96284.38;;;6.28;87.57
57086;BME280;42964;42.910;23.792;2022-11-23T00:43:56;96295.50;;;6.33;87.51
57086;BME280;42964;42.910;23.792;2022-11-23T00:48:56;96304.88;;;6.40;87.13
57086;BME280;42964;42.910;23.792;2022-11-23T00:53:56;96309.97;;;6.47;86.39
57086;BME280;42964;42.910;23.792;2022-11-23T00:58:56;96302.22;;;6.50;86.87
57086;BME280;42964;42.910;23.792;2022-11-23T01:03:57;96311.59;;;6.60;86.76
57086;BME280;42964;42.910;23.792;2022-11-23T01:08:59;96299.50;;;6.65;85.91
57086;BME280;42964;42.910;23.792;2022-11-23T01:13:58;96306.34;;;6.68;86.09
57086;BME280;42964;42.910;23.792;2022-11-23T01:19:00;96299.41;;;6.76;86.17
57086;BME280;42964;42.910;23.792;2022-11-23T01:23:59;96283.91;;;6.80;86.07
57086;BME280;42964;42.910;23.792;2022-11-23T01:28:58;96318.19;;;6.92;85.38
57086;BME280;42964;42.910;23.792;2022-11-23T01:33:59;96323.31;;;6.95;84.98
57086;BME280;42964;42.910;23.792;2022-11-23T01:39:00;96311.31;;;6.91;85.75
57086;BME280;42964;42.910;23.792;2022-11-23T01:43:59;96311.34;;;6.89;85.58
57086;BME280;42964;42.910;23.792;2022-11-23T01:49:06;96296.72;;;6.88;86.05
57086;BME280;42964;42.910;23.792;2022-11-23T01:54:08;96308.72;;;6.92;85.26
57086;BME280;42964;42.910;23.792;2022-11-23T01:59:13;96311.28;;;6.94;85.61
57086;BME280;42964;42.910;23.792;2022-11-23T02:04:19;96322.41;;;6.96;85.45
57086;BME280;42964;42.910;23.792;2022-11-23T02:09:21;96295.81;;;6.91;85.66
57086;BME280;42964;42.910;23.792;2022-11-23T02:14:20;96288.13;;;6.88;86.42
57086;BME280;42964;42.910;23.792;2022-11-23T02:24:38;96294.34;;;6.65;85.07
57086;BME280;42964;42.910;23.792;2022-11-23T02:29:40;96276.97;;;6.84;84.32
57086;BME280;42964;42.910;23.792;2022-11-23T02:34:39;96286.31;;;6.96;84.87
57086;BME280;42964;42.910;23.792;2022-11-23T02:39:43;96295.59;;;7.15;85.61
57086;BME280;42964;42.910;23.792;2022-11-23T02:44:54;96295.31;;;7.43;89.37
57086;BME280;42964;42.910;23.792;2022-11-23T02:49:54;96304.19;;;7.87;90.71
57086;BME280;42964;42.910;23.792;2022-11-23T02:54:53;96299.31;;;8.26;91.64
57086;BME280;42964;42.910;23.792;2022-11-23T02:59:52;96294.47;;;8.60;91.59
57086;BME280;42964;42.910;23.792;2022-11-23T03:04:51;96276.81;;;8.84;91.72
57086;BME280;42964;42.910;23.792;2022-11-23T03:09:50;96260.91;;;9.05;91.56
57086;BME280;42964;42.910;23.792;2022-11-23T03:14:49;96232.38;;;9.08;91.80
57086;BME280;42964;42.910;23.792;2022-11-23T03:19:47;96198.13;;;8.96;92.34
57086;BME280;42964;42.910;23.792;2022-11-23T03:24:46;96195.56;;;8.94;92.12
57086;BME280;42964;42.910;23.792;2022-11-23T03:29:45;96192.06;;;8.97;91.87
57086;BME280;42964;42.910;23.792;2022-11-23T03:34:44;96187.56;;;9.06;90.98
57086;BME280;42964;42.910;23.792;2022-11-23T03:39:43;96179.59;;;9.15;90.26
57086;BME280;42964;42.910;23.792;2022-11-23T03:44:42;96182.84;;;9.27;89.50
57086;BME280;42964;42.910;23.792;2022-11-23T03:49:41;96179.19;;;9.37;88.27
57086;BME280;42964;42.910;23.792;2022-11-23T03:54:40;96166.97;;;9.44;87.77
57086;BME280;42964;42.910;23.792;2022-11-23T03:59:39;96190.16;;;9.48;87.00
57086;BME280;42964;42.910;23.792;2022-11-23T04:04:38;96201.25;;;9.55;86.47
57086;BME280;42964;42.910;23.792;2022-11-23T04:09:37;96195.88;;;9.63;85.65
57086;BME280;42964;42.910;23.792;2022-11-23T04:14:36;96169.94;;;9.66;84.74
57086;BME280;42964;42.910;23.792;2022-11-23T04:19:35;96182.63;;;9.76;84.08
57086;BME280;42964;42.910;23.792;2022-11-23T04:24:34;96191.03;;;9.86;84.21
57086;BME280;42964;42.910;23.792;2022-11-23T04:29:32;96199.47;;;9.96;83.09
57086;BME280;42964;42.910;23.792;2022-11-23T04:34:31;96209.84;;;9.96;82.52
57086;BME280;42964;42.910;23.792;2022-11-23T04:39:30;96214.94;;;9.99;82.22
57086;BME280;42964;42.910;23.792;2022-11-23T04:44:29;96221.00;;;9.98;82.30
57086;BME280;42964;42.910;23.792;2022-11-23T04:49:28;96232.34;;;9.94;82.71
57086;BME280;42964;42.910;23.792;2022-11-23T04:54:27;96233.00;;;10.02;82.38
57086;BME280;42964;42.910;23.792;2022-11-23T04:59:26;96240.00;;;9.98;82.19
57086;BME280;42964;42.910;23.792;2022-11-23T05:04:25;96232.25;;;9.97;82.49
57086;BME280;42964;42.910;23.792;2022-11-23T05:09:24;96249.53;;;9.98;81.36
57086;BME280;42964;42.910;23.792;2022-11-23T05:14:23;96276.31;;;9.95;81.22
57086;BME280;42964;42.910;23.792;2022-11-23T05:19:22;96280.97;;;9.81;82.45
57086;BME280;42964;42.910;23.792;2022-11-23T05:24:21;96301.22;;;9.62;83.63
57086;BME280;42964;42.910;23.792;2022-11-23T05:29:20;96304.44;;;9.31;84.81
57086;BME280;42964;42.910;23.792;2022-11-23T05:34:19;96305.41;;;9.23;84.70
57086;BME280;42964;42.910;23.792;2022-11-23T05:39:18;96306.38;;;9.19;85.48
57086;BME280;42964;42.910;23.792;2022-11-23T05:44:17;96318.34;;;9.24;85.56
57086;BME280;42964;42.910;23.792;2022-11-23T05:49:15;96307.84;;;9.33;85.43
57086;BME280;42964;42.910;23.792;2022-11-23T05:54:14;96305.09;;;9.41;84.96
57086;BME280;42964;42.910;23.792;2022-11-23T05:59:13;96295.38;;;9.54;85.06
57086;BME280;42964;42.910;23.792;2022-11-23T06:04:13;96290.19;;;9.54;84.77
57086;BME280;42964;42.910;23.792;2022-11-23T06:09:11;96285.84;;;9.56;85.57
57086;BME280;42964;42.910;23.792;2022-11-23T06:14:10;96271.88;;;9.63;85.50
57086;BME280;42964;42.910;23.792;2022-11-23T06:19:11;96286.03;;;9.47;85.91
57086;BME280;42964;42.910;23.792;2022-11-23T06:24:10;96288.09;;;9.28;86.05
57086;BME280;42964;42.910;23.792;2022-11-23T06:29:08;96293.22;;;9.31;86.12
57086;BME280;42964;42.910;23.792;2022-11-23T06:34:07;96298.41;;;9.31;85.69
57086;BME280;42964;42.910;23.792;2022-11-23T06:39:06;96294.16;;;9.25;86.52
57086;BME280;42964;42.910;23.792;2022-11-23T06:44:05;96303.59;;;9.31;86.50
57086;BME280;42964;42.910;23.792;2022-11-23T06:49:04;96306.94;;;9.34;86.33
57086;BME280;42964;42.910;23.792;2022-11-23T06:54:03;96293.25;;;9.28;86.46
57086;BME280;42964;42.910;23.792;2022-11-23T06:59:02;96296.97;;;9.13;87.43
57086;BME280;42964;42.910;23.792;2022-11-23T07:04:01;96297.72;;;9.20;87.19
57086;BME280;42964;42.910;23.792;2022-11-23T07:09:00;96301.00;;;9.29;87.39
57086;BME280;42964;42.910;23.792;2022-11-23T07:14:00;96309.69;;;9.28;87.35
57086;BME280;42964;42.910;23.792;2022-11-23T07:18:59;96303.78;;;9.19;88.23
57086;BME280;42964;42.910;23.792;2022-11-23T07:23:58;96306.75;;;9.45;87.26
57086;BME280;42964;42.910;23.792;2022-11-23T07:28:57;96309.81;;;9.64;87.86
57086;BME280;42964;42.910;23.792;2022-11-23T07:33:56;96311.97;;;9.86;86.92
57086;BME280;42964;42.910;23.792;2022-11-23T07:38:55;96307.63;;;9.86;86.72
57086;BME280;42964;42.910;23.792;2022-11-23T07:43:54;96300.28;;;10.07;86.21
57086;BME280;42964;42.910;23.792;2022-11-23T07:48:53;96302.25;;;10.33;85.52
57086;BME280;42964;42.910;23.792;2022-11-23T07:53:57;96300.69;;;10.63;85.70
57086;BME280;42964;42.910;23.792;2022-11-23T07:58:56;96308.28;;;10.71;83.65
57086;BME280;42964;42.910;23.792;2022-11-23T08:03:55;96311.00;;;10.66;82.95
57086;BME280;42964;42.910;23.792;2022-11-23T08:08:54;96302.88;;;10.80;82.93
57086;BME280;42964;42.910;23.792;2022-11-23T08:13:53;96297.91;;;11.05;82.62
57086;BME280;42964;42.910;23.792;2022-11-23T08:18:52;96315.38;;;11.33;82.03
57086;BME280;42964;42.910;23.792;2022-11-23T08:23:51;96320.69;;;11.59;81.30
57086;BME280;42964;42.910;23.792;2022-11-23T08:28:50;96301.91;;;11.81;80.67
57086;BME280;42964;42.910;23.792;2022-11-23T08:33:49;96300.41;;;11.72;78.51
57086;BME280;42964;42.910;23.792;2022-11-23T08:38:48;96295.47;;;11.63;78.55
57086;BME280;42964;42.910;23.792;2022-11-23T08:43:49;96316.16;;;11.66;78.54
57086;BME280;42964;42.910;23.792;2022-11-23T08:48:48;96305.34;;;11.50;78.54
57086;BME280;42964;42.910;23.792;2022-11-23T08:53:48;96304.59;;;11.46;78.43
57086;BME280;42964;42.910;23.792;2022-11-23T08:58:48;96308.03;;;11.47;78.60
57086;BME280;42964;42.910;23.792;2022-11-23T09:03:47;96311.31;;;11.54;78.69
57086;BME280;42964;42.910;23.792;2022-11-23T09:08:46;96309.28;;;11.65;79.05
57086;BME280;42964;42.910;23.792;2022-11-23T09:13:45;96308.81;;;11.80;78.64
57086;BME280;42964;42.910;23.792;2022-11-23T09:18:43;96290.34;;;11.89;78.39
57086;BME280;42964;42.910;23.792;2022-11-23T09:23:42;96282.53;;;11.91;77.73
57086;BME280;42964;42.910;23.792;2022-11-23T09:28:41;96284.44;;;11.84;77.33
57086;BME280;42964;42.910;23.792;2022-11-23T09:33:40;96281.75;;;11.87;76.51
57086;BME280;42964;42.910;23.792;2022-11-23T09:38:39;96272.41;;;12.10;76.28
57086;BME280;42964;42.910;23.792;2022-11-23T09:43:51;96259.97;;;12.20;75.40
57086;BME280;42964;42.910;23.792;2022-11-23T09:54:02;96251.19;;;12.52;73.96
57086;BME280;42964;42.910;23.792;2022-11-23T09:59:09;96251.53;;;12.68;71.97
57086;BME280;42964;42.910;23.792;2022-11-23T10:04:16;96250.47;;;12.73;68.95
57086;BME280;42964;42.910;23.792;2022-11-23T10:09:35;96249.00;;;12.91;68.10
57086;BME280;42964;42.910;23.792;2022-11-23T10:20:00;96231.09;;;13.31;64.38
57086;BME280;42964;42.910;23.792;2022-11-23T10:25:13;96224.84;;;13.35;63.77
57086;BME280;42964;42.910;23.792;2022-11-23T10:30:14;96228.59;;;13.51;61.23
57086;BME280;42964;42.910;23.792;2022-11-23T10:35:15;96234.47;;;13.58;61.35
57086;BME280;42964;42.910;23.792;2022-11-23T10:40:18;96222.06;;;13.65;60.08
57086;BME280;42964;42.910;23.792;2022-11-23T10:45:24;96225.25;;;13.73;59.69
57086;BME280;42964;42.910;23.792;2022-11-23T10:50:25;96235.53;;;13.76;58.49
57086;BME280;42964;42.910;23.792;2022-11-23T10:55:30;96229.81;;;13.90;58.02
57086;BME280;42964;42.910;23.792;2022-11-23T11:00:29;96218.75;;;14.05;57.04
57086;BME280;42964;42.910;23.792;2022-11-23T11:05:48;96220.09;;;14.37;56.59
57086;BME280;42964;42.910;23.792;2022-11-23T11:10:49;96210.59;;;14.57;54.91
57086;BME280;42964;42.910;23.792;2022-11-23T11:16:00;96223.44;;;14.83;56.20
57086;BME280;42964;42.910;23.792;2022-11-23T11:21:06;96216.03;;;15.14;55.79
57086;BME280;42964;42.910;23.792;2022-11-23T11:26:33;96209.66;;;15.40;54.38
57086;BME280;42964;42.910;23.792;2022-11-23T11:42:17;96193.63;;;16.04;51.97
57086;BME280;42964;42.910;23.792;2022-11-23T11:47:35;96187.28;;;15.91;50.53
57086;BME280;42964;42.910;23.792;2022-11-23T11:52:37;96183.47;;;15.60;50.47
57086;BME280;42964;42.910;23.792;2022-11-23T11:57:43;96182.16;;;15.31;50.42
57086;BME280;42964;42.910;23.792;2022-11-23T12:13:07;96191.47;;;15.18;51.56
57086;BME280;42964;42.910;23.792;2022-11-23T12:18:22;96175.72;;;15.19;51.89
57086;BME280;42964;42.910;23.792;2022-11-23T13:01:04;96191.56;;;14.96;50.63
57086;BME280;42964;42.910;23.792;2022-11-23T13:06:33;96190.97;;;15.29;49.43
57086;BME280;42964;42.910;23.792;2022-11-23T13:11:35;96187.06;;;15.58;48.86
57086;BME280;42964;42.910;23.792;2022-11-23T13:21:52;96188.69;;;15.60;48.55
57086;BME280;42964;42.910;23.792;2022-11-23T13:43:28;96219.41;;;14.97;48.65
57086;BME280;42964;42.910;23.792;2022-11-23T13:48:28;96232.63;;;14.72;47.92
57086;BME280;42964;42.910;23.792;2022-11-23T13:53:28;96236.72;;;14.57;49.09
57086;BME280;42964;42.910;23.792;2022-11-23T13:58:36;96246.19;;;14.37;50.21
57086;BME280;42964;42.910;23.792;2022-11-23T14:03:45;96253.09;;;14.16;50.01
57086;BME280;42964;42.910;23.792;2022-11-23T14:08:57;96253.44;;;13.85;51.19
57086;BME280;42964;42.910;23.792;2022-11-23T14:14:00;96263.09;;;13.60;52.01
57086;BME280;42964;42.910;23.792;2022-11-23T14:24:41;96265.13;;;13.26;53.03
57086;BME280;42964;42.910;23.792;2022-11-23T14:30:03;96275.94;;;13.15;52.79
57086;BME280;42964;42.910;23.792;2022-11-23T14:45:45;96267.22;;;12.65;53.42
57086;BME280;42964;42.910;23.792;2022-11-23T14:50:53;96272.91;;;12.51;53.49
57086;BME280;42964;42.910;23.792;2022-11-23T14:55:54;96269.03;;;12.36;53.58
57086;BME280;42964;42.910;23.792;2022-11-23T15:00:58;96278.84;;;12.26;53.92
57086;BME280;42964;42.910;23.792;2022-11-23T15:06:10;96286.19;;;12.14;54.12
57086;BME280;42964;42.910;23.792;2022-11-23T15:11:13;96283.09;;;12.01;54.14
57086;BME280;42964;42.910;23.792;2022-11-23T15:16:18;96286.06;;;11.88;54.70
57086;BME280;42964;42.910;23.792;2022-11-23T15:21:20;96286.44;;;11.76;54.91
57086;BME280;42964;42.910;23.792;2022-11-23T15:26:23;96298.81;;;11.66;55.28
57086;BME280;42964;42.910;23.792;2022-11-23T15:31:28;96299.16;;;11.56;55.52
57086;BME280;42964;42.910;23.792;2022-11-23T15:36:30;96299.53;;;11.42;56.11
57086;BME280;42964;42.910;23.792;2022-11-23T15:41:29;96296.44;;;11.29;57.36
57086;BME280;42964;42.910;23.792;2022-11-23T15:46:34;96302.13;;;11.11;57.50
57086;BME280;42964;42.910;23.792;2022-11-23T15:51:39;96304.25;;;10.95;58.61
57086;BME280;42964;42.910;23.792;2022-11-23T15:56:43;96308.91;;;10.80;58.92
57086;BME280;42964;42.910;23.792;2022-11-23T16:01:43;96307.38;;;10.72;60.05
57086;BME280;42964;42.910;23.792;2022-11-23T16:06:46;96320.16;;;10.45;62.35
57086;BME280;42964;42.910;23.792;2022-11-23T16:11:45;96310.22;;;10.25;63.01
57086;BME280;42964;42.910;23.792;2022-11-23T16:16:46;96315.59;;;10.17;62.91
57086;BME280;42964;42.910;23.792;2022-11-23T16:21:46;96319.34;;;10.04;63.37
57086;BME280;42964;42.910;23.792;2022-11-23T16:26:45;96322.28;;;9.87;64.39
57086;BME280;42964;42.910;23.792;2022-11-23T16:31:52;96326.00;;;9.75;65.27
57086;BME280;42964;42.910;23.792;2022-11-23T16:36:52;96339.41;;;9.52;68.06
57086;BME280;42964;42.910;23.792;2022-11-23T16:41:53;96343.19;;;9.34;68.89
57086;BME280;42964;42.910;23.792;2022-11-23T16:46:52;96353.25;;;9.02;73.31
57086;BME280;42964;42.910;23.792;2022-11-23T16:51:51;96351.84;;;8.82;75.14
57086;BME280;42964;42.910;23.792;2022-11-23T16:56:53;96367.09;;;8.45;78.20
57086;BME280;42964;42.910;23.792;2022-11-23T17:01:52;96375.03;;;8.34;78.84
57086;BME280;42964;42.910;23.792;2022-11-23T17:06:51;96373.13;;;8.45;78.62
57086;BME280;42964;42.910;23.792;2022-11-23T17:11:50;96373.09;;;8.48;78.51
57086;BME280;42964;42.910;23.792;2022-11-23T17:16:49;96370.50;;;8.48;77.92
57086;BME280;42964;42.910;23.792;2022-11-23T17:21:48;96388.59;;;8.48;78.46
57086;BME280;42964;42.910;23.792;2022-11-23T17:26:50;96396.63;;;8.28;79.53
57086;BME280;42964;42.910;23.792;2022-11-23T17:31:50;96390.66;;;8.25;79.28
57086;BME280;42964;42.910;23.792;2022-11-23T17:36:50;96395.66;;;8.36;78.60
57086;BME280;42964;42.910;23.792;2022-11-23T17:41:50;96400.03;;;8.32;78.72
57086;BME280;42964;42.910;23.792;2022-11-23T17:46:50;96411.34;;;8.25;79.26
57086;BME280;42964;42.910;23.792;2022-11-23T17:51:50;96422.66;;;8.16;79.96
57086;BME280;42964;42.910;23.792;2022-11-23T17:56:50;96428.88;;;7.98;81.66
57086;BME280;42964;42.910;23.792;2022-11-23T18:01:49;96426.63;;;7.71;83.71
57086;BME280;42964;42.910;23.792;2022-11-23T18:06:48;96440.66;;;7.47;85.80
57086;BME280;42964;42.910;23.792;2022-11-23T18:11:47;96445.00;;;7.37;85.56
57086;BME280;42964;42.910;23.792;2022-11-23T18:16:49;96451.94;;;7.29;86.43
57086;BME280;42964;42.910;23.792;2022-11-23T18:21:48;96453.75;;;7.20;86.28
57086;BME280;42964;42.910;23.792;2022-11-23T18:26:47;96452.06;;;7.19;86.63
57086;BME280;42964;42.910;23.792;2022-11-23T18:31:46;96456.44;;;7.08;87.00
57086;BME280;42964;42.910;23.792;2022-11-23T18:36:45;96460.78;;;7.00;87.01
57086;BME280;42964;42.910;23.792;2022-11-23T18:41:45;96470.25;;;6.98;86.54
57086;BME280;42964;42.910;23.792;2022-11-23T18:46:44;96464.28;;;6.93;86.97
57086;BME280;42964;42.910;23.792;2022-11-23T18:51:43;96473.78;;;6.89;86.71
57086;BME280;42964;42.910;23.792;2022-11-23T18:56:42;96467.81;;;6.82;87.46
57086;BME280;42964;42.910;23.792;2022-11-23T19:01:41;96474.72;;;6.77;88.08
57086;BME280;42964;42.910;23.792;2022-11-23T19:06:40;96481.56;;;6.85;88.40
57086;BME280;42964;42.910;23.792;2022-11-23T19:11:39;96471.25;;;6.81;88.43
57086;BME280;42964;42.910;23.792;2022-11-23T19:16:38;96463.69;;;6.57;90.32
57086;BME280;42964;42.910;23.792;2022-11-23T19:21:37;96462.88;;;6.52;90.13
57086;BME280;42964;42.910;23.792;2022-11-23T19:26:36;96490.53;;;6.07;91.29
57086;BME280;42964;42.910;23.792;2022-11-23T19:31:36;96480.28;;;5.90;92.38
57086;BME280;42964;42.910;23.792;2022-11-23T19:36:35;96491.47;;;5.87;91.45
57086;BME280;42964;42.910;23.792;2022-11-23T19:41:34;96487.97;;;5.97;91.41
57086;BME280;42964;42.910;23.792;2022-11-23T19:46:32;96481.13;;;6.03;91.30
57086;BME280;42964;42.910;23.792;2022-11-23T19:51:31;96489.69;;;6.08;90.81
57086;BME280;42964;42.910;23.792;2022-11-23T19:56:30;96506.88;;;5.95;92.07
57086;BME280;42964;42.910;23.792;2022-11-23T20:01:30;96506.97;;;5.41;95.36
57086;BME280;42964;42.910;23.792;2022-11-23T20:06:30;96507.84;;;5.34;95.29
57086;BME280;42964;42.910;23.792;2022-11-23T20:11:31;96513.00;;;5.31;95.30
57086;BME280;42964;42.910;23.792;2022-11-23T20:16:31;96524.16;;;5.25;96.17
57086;BME280;42964;42.910;23.792;2022-11-23T20:21:31;96537.03;;;5.34;95.49
57086;BME280;42964;42.910;23.792;2022-11-23T20:26:31;96547.31;;;5.42;94.70
57086;BME280;42964;42.910;23.792;2022-11-23T20:31:31;96540.44;;;5.44;94.68
57086;BME280;42964;42.910;23.792;2022-11-23T20:36:32;96550.72;;;5.47;94.08
57086;BME280;42964;42.910;23.792;2022-11-23T20:41:33;96556.75;;;5.42;93.90
57086;BME280;42964;42.910;23.792;2022-11-23T20:46:32;96559.28;;;5.34;94.42
57086;BME280;42964;42.910;23.792;2022-11-23T20:51:31;96568.72;;;5.33;94.40
57086;BME280;42964;42.910;23.792;2022-11-23T20:56:30;96577.31;;;5.31;94.75
57086;BME280;42964;42.910;23.792;2022-11-23T21:01:30;96562.72;;;5.24;94.73
57086;BME280;42964;42.910;23.792;2022-11-23T21:06:29;96566.13;;;5.20;94.23
57086;BME280;42964;42.910;23.792;2022-11-23T21:11:28;96573.88;;;5.18;94.57
57086;BME280;42964;42.910;23.792;2022-11-23T21:16:56;96563.56;;;5.12;95.00
57086;BME280;42964;42.910;23.792;2022-11-23T21:22:05;96573.88;;;5.13;95.24
57086;BME280;42964;42.910;23.792;2022-11-23T21:27:06;96573.00;;;5.11;95.09
57086;BME280;42964;42.910;23.792;2022-11-23T21:32:05;96583.28;;;5.02;95.48
57086;BME280;42964;42.910;23.792;2022-11-23T21:37:04;96584.03;;;4.84;97.73
57086;BME280;42964;42.910;23.792;2022-11-23T21:42:04;96585.72;;;4.62;99.59
57086;BME280;42964;42.910;23.792;2022-11-23T21:47:03;96583.16;;;4.70;98.70
57086;BME280;42964;42.910;23.792;2022-11-23T21:52:02;96589.19;;;4.74;97.95
57086;BME280;42964;42.910;23.792;2022-11-23T21:57:01;96573.75;;;4.72;97.88
57086;BME280;42964;42.910;23.792;2022-11-23T22:02:00;96569.44;;;4.72;97.40
57086;BME280;42964;42.910;23.792;2022-11-23T22:06:59;96566.88;;;4.65;97.43
57086;BME280;42964;42.910;23.792;2022-11-23T22:11:58;96579.69;;;4.63;97.27
57086;BME280;42964;42.910;23.792;2022-11-23T22:16:57;96581.38;;;4.49;97.76
57086;BME280;42964;42.910;23.792;2022-11-23T22:21:56;96588.19;;;4.42;98.15
57086;BME280;42964;42.910;23.792;2022-11-23T22:26:55;96579.56;;;4.29;98.51
57086;BME280;42964;42.910;23.792;2022-11-23T22:31:54;96543.53;;;4.11;97.79
57086;BME280;42964;42.910;23.792;2022-11-23T22:36:53;96586.41;;;4.31;97.81
57086;BME280;42964;42.910;23.792;2022-11-23T22:41:52;96602.59;;;4.08;99.22
57086;BME280;42964;42.910;23.792;2022-11-23T22:46:51;96594.81;;;3.99;98.95
57086;BME280;42964;42.910;23.792;2022-11-23T22:51:50;96599.06;;;3.95;98.75
57086;BME280;42964;42.910;23.792;2022-11-23T22:56:49;96598.16;;;3.87;99.83
57086;BME280;42964;42.910;23.792;2022-11-23T23:01:48;96601.59;;;3.88;99.97
57086;BME280;42964;42.910;23.792;2022-11-23T23:06:47;96610.91;;;3.73;100.00
57086;BME280;42964;42.910;23.792;2022-11-23T23:11:47;96605.72;;;3.70;100.00
57086;BME280;42964;42.910;23.792;2022-11-23T23:16:46;96601.47;;;3.69;100.00
57086;BME280;42964;42.910;23.792;2022-11-23T23:21:45;96600.63;;;3.75;100.00
57086;BME280;42964;42.910;23.792;2022-11-23T23:26:44;96598.94;;;3.80;100.00
57086;BME280;42964;42.910;23.792;2022-11-23T23:31:43;96605.00;;;3.86;100.00
57086;BME280;42964;42.910;23.792;2022-11-23T23:36:42;96592.19;;;3.88;100.00
57086;BME280;42964;42.910;23.792;2022-11-23T23:41:41;96598.22;;;4.01;100.00
57086;BME280;42964;42.910;23.792;2022-11-23T23:46:40;96605.09;;;4.05;100.00
57086;BME280;42964;42.910;23.792;2022-11-23T23:51:39;96613.66;;;4.05;100.00
57086;BME280;42964;42.910;23.792;2022-11-23T23:56:38;96614.47;;;3.98;100.00
